Time;durP1;ratioP1;P1;durP2;ratioP2;P2;SDS_P1;SDS_P2;PMS_P1;PMS_P2;Temp;Humidity;BMP_temperature;BMP_pressure;BME280_temperature;BME280_humidity;BME280_pressure;Samples;Min_cycle;Max_cycle;Signal;HPM_P1;HPM_P2
2021/09/22 00:01:52;;;;;;;15.25;9.68;;;12.80;99.90;;;;;;4975516;28;20488;-76
2021/09/22 00:04:19;;;;;;;12.27;8.90;;;12.70;99.90;;;;;;4975980;28;20060;-77
2021/09/22 00:06:47;;;;;;;11.32;9.00;;;12.80;99.90;;;;;;4974816;28;20058;-76
2021/09/22 00:09:14;;;;;;;11.60;8.95;;;12.70;99.90;;;;;;4973793;28;20133;-76
2021/09/22 00:11:41;;;;;;;15.45;9.38;;;12.60;99.90;;;;;;4973552;28;20062;-76
2021/09/22 00:14:08;;;;;;;13.68;8.70;;;12.60;99.90;;;;;;4973458;28;20369;-77
2021/09/22 00:16:35;;;;;;;12.15;8.57;;;12.60;99.90;;;;;;4973329;28;20085;-76
2021/09/22 00:19:02;;;;;;;11.98;9.02;;;12.60;99.90;;;;;;4973334;28;20445;-76
2021/09/22 00:21:29;;;;;;;11.52;8.65;;;12.60;99.90;;;;;;4973170;28;20046;-75
2021/09/22 00:23:57;;;;;;;12.27;9.30;;;12.60;99.90;;;;;;4973225;28;20086;-76
2021/09/22 00:26:24;;;;;;;14.35;9.40;;;12.50;99.90;;;;;;4973122;28;20424;-76
2021/09/22 00:28:51;;;;;;;12.27;8.98;;;12.50;99.90;;;;;;4973013;28;20564;-77
2021/09/22 00:31:18;;;;;;;14.07;9.35;;;12.50;99.90;;;;;;4973252;28;20515;-76
2021/09/22 00:33:45;;;;;;;12.93;9.48;;;12.40;99.90;;;;;;4973185;28;20098;-76
2021/09/22 00:36:12;;;;;;;16.10;10.38;;;12.40;99.90;;;;;;4973286;28;20492;-76
2021/09/22 00:38:39;;;;;;;13.85;10.02;;;12.30;99.90;;;;;;4973177;28;20133;-76
2021/09/22 00:41:07;;;;;;;19.45;10.80;;;12.20;99.90;;;;;;4972878;28;20509;-76
2021/09/22 00:43:34;;;;;;;18.67;11.60;;;12.10;99.90;;;;;;4973315;28;20053;-76
2021/09/22 00:46:04;;;;;;;14.77;9.88;;;12.10;99.90;;;;;;4972564;28;20054;-73
2021/09/22 00:48:32;;;;;;;16.30;9.85;;;12.10;99.90;;;;;;4972867;28;20109;-76
2021/09/22 00:50:59;;;;;;;14.88;10.27;;;12.10;99.90;;;;;;4972857;28;20063;-76
2021/09/22 00:53:26;;;;;;;13.20;10.27;;;12.10;99.90;;;;;;4972901;28;20146;-76
2021/09/22 00:55:53;;;;;;;15.40;10.00;;;12.00;99.90;;;;;;4972766;28;20568;-76
2021/09/22 00:58:22;;;;;;;15.20;10.18;;;12.00;99.90;;;;;;4972623;28;20117;-75
2021/09/22 01:00:49;;;;;;;13.88;10.20;;;11.90;99.90;;;;;;4972576;28;20584;-76
2021/09/22 01:03:15;;;;;;;14.55;9.93;;;11.90;99.90;;;;;;4973069;28;20428;-76
2021/09/22 01:05:44;;;;;;;13.13;9.88;;;12.00;99.90;;;;;;4973279;28;20081;-76
2021/09/22 01:08:11;;;;;;;15.75;9.43;;;12.00;99.90;;;;;;4973386;28;20190;-76
2021/09/22 01:10:38;;;;;;;17.08;10.38;;;12.00;99.90;;;;;;4973000;28;20089;-76
2021/09/22 01:13:05;;;;;;;17.73;10.18;;;12.00;99.90;;;;;;4972638;28;20043;-76
2021/09/22 01:15:36;;;;;;;12.95;9.88;;;12.00;99.90;;;;;;4972282;28;20142;-76
2021/09/22 01:18:03;;;;;;;15.57;10.00;;;12.00;99.90;;;;;;4972768;28;20133;-76
2021/09/22 01:20:32;;;;;;;16.00;9.05;;;12.00;99.90;;;;;;4972822;28;20074;-77
2021/09/22 01:23:02;;;;;;;12.38;9.02;;;11.90;99.90;;;;;;4972617;28;20097;-76
2021/09/22 01:25:29;;;;;;;13.48;9.60;;;11.90;99.90;;;;;;4972266;28;20079;-75
2021/09/22 01:27:59;;;;;;;12.05;9.18;;;11.90;99.90;;;;;;4972128;28;20047;-76
2021/09/22 01:30:28;;;;;;;13.13;9.63;;;11.80;99.90;;;;;;5024169;23;20065;-81
2021/09/22 01:33:07;;;;;;;13.18;9.70;;;11.70;99.90;;;;;;5003369;28;20055;-82
2021/09/22 01:35:56;;;;;;;13.70;9.50;;;11.60;99.90;;;;;;5007378;28;20065;-81
2021/09/22 01:38:29;;;;;;;13.45;9.02;;;11.60;99.90;;;;;;5010793;28;20122;-82
2021/09/22 01:41:04;;;;;;;13.50;9.77;;;11.60;99.90;;;;;;5006740;28;20062;-83
2021/09/22 01:43:33;;;;;;;13.18;9.70;;;11.60;99.90;;;;;;5001374;28;20082;-79
2021/09/22 01:46:01;;;;;;;15.43;9.45;;;11.60;99.90;;;;;;4999959;28;20133;-80
2021/09/22 01:48:28;;;;;;;11.95;8.32;;;11.50;99.90;;;;;;5004989;28;20130;-80
2021/09/22 01:50:56;;;;;;;14.20;9.07;;;11.50;99.90;;;;;;5001620;28;20109;-80
2021/09/22 01:53:25;;;;;;;12.52;8.73;;;11.50;99.90;;;;;;4998896;28;20109;-81
2021/09/22 01:55:53;;;;;;;14.20;8.38;;;11.50;99.90;;;;;;5000728;28;20121;-80
2021/09/22 01:58:20;;;;;;;12.38;9.23;;;11.40;99.90;;;;;;5000505;28;20052;-81
2021/09/22 02:00:47;;;;;;;10.18;8.30;;;11.40;99.90;;;;;;4999550;28;20137;-80
2021/09/22 02:03:16;;;;;;;10.88;8.88;;;11.40;99.90;;;;;;5002038;28;20085;-80
2021/09/22 02:05:43;;;;;;;12.70;9.48;;;11.40;99.90;;;;;;5004954;28;20062;-79
2021/09/22 02:08:09;;;;;;;12.13;9.15;;;11.40;99.90;;;;;;5005305;28;20058;-78
2021/09/22 02:10:39;;;;;;;14.23;9.40;;;11.40;99.90;;;;;;5009535;28;20050;-80
2021/09/22 02:13:06;;;;;;;13.00;9.30;;;11.40;99.90;;;;;;5008986;28;20054;-80
2021/09/22 02:15:33;;;;;;;18.88;9.82;;;11.30;99.90;;;;;;5009001;28;20089;-80
2021/09/22 02:18:00;;;;;;;12.05;9.88;;;11.30;99.90;;;;;;5009945;28;20058;-79
2021/09/22 02:20:27;;;;;;;13.45;9.02;;;11.30;99.90;;;;;;5010536;28;20112;-80
2021/09/22 02:22:54;;;;;;;13.57;9.52;;;11.30;99.90;;;;;;5008610;28;20074;-80
2021/09/22 02:25:21;;;;;;;13.30;9.57;;;11.30;99.90;;;;;;5009435;28;20051;-80
2021/09/22 02:27:49;;;;;;;15.60;10.38;;;11.30;99.90;;;;;;5010382;28;20090;-80
2021/09/22 02:30:18;;;;;;;12.40;9.68;;;11.30;99.90;;;;;;5009925;28;20127;-80
2021/09/22 02:32:45;;;;;;;14.70;9.48;;;11.20;99.90;;;;;;5009805;28;20150;-79
2021/09/22 02:35:13;;;;;;;13.98;10.18;;;11.20;99.90;;;;;;5007346;28;20054;-79
2021/09/22 02:37:40;;;;;;;16.83;10.40;;;11.10;99.90;;;;;;5007373;28;20121;-81
2021/09/22 02:40:11;;;;;;;15.10;10.68;;;11.10;99.90;;;;;;5007731;28;20082;-79
2021/09/22 02:42:38;;;;;;;15.70;10.35;;;11.10;99.90;;;;;;5007856;28;20078;-79
2021/09/22 02:45:07;;;;;;;13.27;10.15;;;11.00;99.90;;;;;;5008907;28;20065;-79
2021/09/22 02:47:34;;;;;;;19.35;11.88;;;11.00;99.90;;;;;;5007075;28;20110;-81
2021/09/22 02:50:01;;;;;;;14.43;10.35;;;11.00;99.90;;;;;;5008545;28;20078;-80
2021/09/22 02:52:28;;;;;;;15.77;10.85;;;10.90;99.90;;;;;;5009066;28;20081;-79
2021/09/22 02:54:55;;;;;;;15.63;10.07;;;10.90;99.90;;;;;;5009388;28;20082;-79
2021/09/22 02:57:22;;;;;;;17.98;10.63;;;10.90;99.90;;;;;;5006327;28;20078;-80
2021/09/22 02:59:48;;;;;;;14.07;10.15;;;10.90;99.90;;;;;;5007665;28;20054;-81
2021/09/22 03:02:17;;;;;;;17.00;11.27;;;10.90;99.90;;;;;;5008955;28;20170;-80
2021/09/22 03:04:44;;;;;;;14.73;11.20;;;10.90;99.90;;;;;;5009478;28;20082;-80
2021/09/22 03:07:10;;;;;;;17.55;10.82;;;10.90;99.90;;;;;;5008183;28;20054;-82
2021/09/22 03:09:37;;;;;;;16.15;10.85;;;10.90;99.90;;;;;;5009013;28;20054;-81
2021/09/22 03:12:05;;;;;;;14.27;11.35;;;10.90;99.90;;;;;;5009127;28;20133;-81
2021/09/22 03:14:31;;;;;;;17.60;12.05;;;10.80;99.90;;;;;;5008634;28;20102;-79
2021/09/22 03:16:58;;;;;;;19.88;12.15;;;10.80;99.90;;;;;;5004766;28;20089;-79
2021/09/22 03:19:26;;;;;;;16.33;11.90;;;10.80;99.90;;;;;;5006068;28;20085;-80
2021/09/22 03:21:53;;;;;;;17.75;11.75;;;10.80;99.90;;;;;;5008223;28;20053;-80
2021/09/22 03:24:20;;;;;;;19.15;11.90;;;10.80;99.90;;;;;;5009872;28;20061;-80
2021/09/22 03:26:47;;;;;;;15.57;11.57;;;10.80;99.90;;;;;;5011930;28;20500;-80
2021/09/22 03:29:14;;;;;;;17.40;10.60;;;10.70;99.90;;;;;;5012332;28;20122;-79
2021/09/22 03:31:42;;;;;;;15.50;11.07;;;10.70;99.90;;;;;;5014217;28;20073;-79
2021/09/22 03:34:09;;;;;;;15.80;11.57;;;10.70;99.90;;;;;;5008241;28;20056;-80
2021/09/22 03:36:38;;;;;;;19.42;13.27;;;10.70;99.90;;;;;;5007124;28;20134;-80
2021/09/22 03:39:04;;;;;;;15.48;11.32;;;10.60;99.90;;;;;;5006364;28;20057;-79
2021/09/22 03:41:31;;;;;;;16.42;11.07;;;10.70;99.90;;;;;;5007536;28;20141;-79
2021/09/22 03:43:58;;;;;;;17.33;11.52;;;10.60;99.90;;;;;;5007385;28;20058;-82
2021/09/22 03:46:25;;;;;;;18.33;11.30;;;10.60;99.90;;;;;;5006087;28;20093;-83
2021/09/22 03:48:52;;;;;;;15.07;10.68;;;10.50;99.90;;;;;;5003332;28;20046;-83
2021/09/22 03:51:19;;;;;;;14.10;11.10;;;10.60;99.90;;;;;;5003645;28;20050;-83
2021/09/22 03:53:47;;;;;;;19.15;12.02;;;10.60;99.90;;;;;;5005212;28;20475;-83
2021/09/22 03:56:14;;;;;;;15.90;11.00;;;10.60;99.90;;;;;;5005803;28;20105;-80
2021/09/22 03:58:41;;;;;;;20.75;11.23;;;10.60;99.90;;;;;;5010748;28;20089;-81
2021/09/22 04:01:08;;;;;;;15.98;11.13;;;10.60;99.90;;;;;;5011583;28;20054;-81
2021/09/22 04:03:35;;;;;;;13.55;10.55;;;10.60;99.90;;;;;;5011709;28;20076;-81
2021/09/22 04:06:02;;;;;;;14.50;11.00;;;10.60;99.90;;;;;;5011465;28;20060;-81
2021/09/22 04:08:29;;;;;;;16.98;11.45;;;10.50;99.90;;;;;;5012059;28;20050;-81
2021/09/22 04:10:57;;;;;;;14.82;11.30;;;10.50;99.90;;;;;;5011804;28;20085;-81
2021/09/22 04:13:24;;;;;;;16.10;11.45;;;10.40;99.90;;;;;;5011853;28;20046;-80
2021/09/22 04:15:51;;;;;;;18.10;11.68;;;10.40;99.90;;;;;;5009943;28;20061;-80
2021/09/22 04:18:19;;;;;;;14.88;12.15;;;10.30;99.90;;;;;;5008950;28;20050;-80
2021/09/22 04:20:46;;;;;;;15.25;12.15;;;10.30;99.90;;;;;;5008570;28;20074;-80
2021/09/22 04:23:13;;;;;;;18.10;12.40;;;10.30;99.90;;;;;;5005955;28;20065;-81
2021/09/22 04:25:40;;;;;;;16.13;12.38;;;10.40;99.90;;;;;;5001746;28;20089;-79
2021/09/22 04:28:09;;;;;;;17.25;13.25;;;10.30;99.90;;;;;;4995005;28;20054;-79
2021/09/22 04:30:36;;;;;;;18.25;13.10;;;10.30;99.90;;;;;;5005795;28;20054;-79
2021/09/22 04:33:03;;;;;;;16.35;12.35;;;10.30;99.90;;;;;;4988401;28;20097;-80
2021/09/22 04:35:30;;;;;;;19.75;12.88;;;10.30;99.90;;;;;;4987352;28;20086;-79
2021/09/22 04:37:57;;;;;;;18.80;13.43;;;10.30;99.90;;;;;;4987656;28;20081;-81
2021/09/22 04:40:28;;;;;;;20.95;14.60;;;10.30;99.90;;;;;;4987284;28;20114;-80
2021/09/22 04:42:57;;;;;;;23.80;15.80;;;10.30;99.90;;;;;;4985566;28;20050;-80
2021/09/22 04:45:26;;;;;;;19.23;14.68;;;10.20;99.90;;;;;;5002401;28;20133;-81
2021/09/22 04:47:54;;;;;;;18.52;14.13;;;10.20;99.90;;;;;;5001578;28;20082;-80
2021/09/22 04:50:21;;;;;;;21.27;15.18;;;10.00;99.90;;;;;;4990457;28;20450;-82
2021/09/22 04:52:48;;;;;;;22.83;15.80;;;10.00;99.90;;;;;;4998404;28;20078;-80
2021/09/22 04:55:15;;;;;;;24.67;15.90;;;10.00;99.90;;;;;;4998292;28;20109;-82
2021/09/22 04:57:42;;;;;;;21.33;15.15;;;10.00;99.90;;;;;;4998727;28;20507;-81
2021/09/22 05:00:10;;;;;;;21.73;15.38;;;10.00;99.90;;;;;;5000907;28;20485;-82
2021/09/22 05:02:39;;;;;;;21.08;15.10;;;10.00;99.90;;;;;;4998618;28;20081;-81
2021/09/22 05:05:07;;;;;;;21.88;15.35;;;10.00;99.90;;;;;;4996258;28;20183;-81
2021/09/22 05:07:33;;;;;;;18.52;14.98;;;10.00;99.90;;;;;;5001699;28;20094;-82
2021/09/22 05:10:00;;;;;;;20.83;14.85;;;10.10;99.90;;;;;;5012417;28;20074;-82
2021/09/22 05:12:27;;;;;;;19.80;14.55;;;10.10;99.90;;;;;;4996010;28;20046;-79
2021/09/22 05:14:54;;;;;;;21.02;15.45;;;10.10;99.90;;;;;;4999724;28;20552;-81
2021/09/22 05:17:21;;;;;;;19.80;15.52;;;10.10;99.90;;;;;;4993148;28;20142;-80
2021/09/22 05:19:49;;;;;;;25.42;15.95;;;10.10;99.90;;;;;;5004630;28;20071;-80
2021/09/22 05:22:16;;;;;;;20.02;14.82;;;10.00;99.90;;;;;;5004014;28;20073;-80
2021/09/22 05:24:44;;;;;;;20.27;15.38;;;10.00;99.90;;;;;;4998826;28;20559;-78
2021/09/22 05:27:12;;;;;;;25.15;16.25;;;10.00;99.90;;;;;;4999823;28;20425;-79
2021/09/22 05:29:39;;;;;;;22.75;15.32;;;10.00;99.90;;;;;;5009428;28;20078;-80
2021/09/22 05:32:07;;;;;;;20.52;15.13;;;10.00;99.90;;;;;;5010113;28;20086;-80
2021/09/22 05:34:34;;;;;;;21.83;16.27;;;10.00;99.90;;;;;;5008391;28;20046;-80
2021/09/22 05:37:02;;;;;;;27.92;16.35;;;10.00;99.90;;;;;;5012403;28;20141;-81
2021/09/22 05:39:29;;;;;;;28.52;16.60;;;10.00;99.90;;;;;;5013742;28;20080;-81
2021/09/22 05:41:56;;;;;;;23.17;15.00;;;10.00;99.90;;;;;;5013659;28;20053;-81
2021/09/22 05:44:23;;;;;;;19.83;14.57;;;10.00;99.90;;;;;;5010687;28;20050;-80
2021/09/22 05:46:49;;;;;;;18.75;13.88;;;10.10;99.90;;;;;;5015627;28;20065;-79
2021/09/22 05:49:17;;;;;;;20.23;14.77;;;10.10;99.90;;;;;;5005169;28;20129;-80
2021/09/22 05:51:44;;;;;;;23.42;14.68;;;10.10;99.90;;;;;;5004289;28;20050;-79
2021/09/22 05:54:14;;;;;;;20.40;14.07;;;10.20;99.90;;;;;;5013181;28;20034;-83
2021/09/22 05:56:42;;;;;;;21.05;14.30;;;10.20;99.90;;;;;;5010313;28;20085;-83
2021/09/22 05:59:09;;;;;;;20.23;13.90;;;10.30;99.90;;;;;;4987333;28;20054;-81
2021/09/22 06:01:36;;;;;;;22.45;14.45;;;10.40;99.90;;;;;;4986803;28;20477;-81
2021/09/22 06:04:05;;;;;;;24.70;13.27;;;10.40;99.90;;;;;;4988170;28;20071;-81
2021/09/22 06:06:32;;;;;;;22.35;13.73;;;10.50;99.90;;;;;;5002356;28;20066;-78
2021/09/22 06:08:58;;;;;;;30.95;14.07;;;10.50;99.90;;;;;;5005506;28;20115;-81
2021/09/22 06:11:27;;;;;;;24.40;14.75;;;10.60;99.90;;;;;;5004212;28;20050;-83
2021/09/22 06:13:54;;;;;;;23.60;13.77;;;10.70;99.90;;;;;;5003245;28;20054;-84
2021/09/22 06:16:21;;;;;;;29.38;14.48;;;10.70;99.90;;;;;;5001430;28;20052;-83
2021/09/22 06:18:48;;;;;;;23.38;13.75;;;10.80;99.90;;;;;;4998453;28;20129;-82
2021/09/22 06:21:15;;;;;;;30.40;13.88;;;10.90;99.90;;;;;;5003615;28;20074;-84
2021/09/22 06:23:43;;;;;;;27.65;16.27;;;11.00;99.90;;;;;;4998582;28;20046;-83
2021/09/22 06:26:13;;;;;;;24.58;15.73;;;11.00;99.90;;;;;;5001369;28;20127;-83
2021/09/22 06:28:41;;;;;;;24.63;13.90;;;11.00;99.90;;;;;;5000243;28;20113;-84
2021/09/22 06:31:08;;;;;;;24.45;14.05;;;11.10;99.90;;;;;;4994707;28;20149;-84
2021/09/22 06:33:35;;;;;;;28.08;13.55;;;11.20;99.90;;;;;;4993693;28;20072;-83
2021/09/22 06:36:04;;;;;;;23.58;13.50;;;11.30;99.90;;;;;;4994553;28;20089;-84
2021/09/22 06:38:31;;;;;;;22.67;13.68;;;11.30;99.90;;;;;;4984361;28;20097;-83
2021/09/22 06:41:01;;;;;;;21.67;13.88;;;11.40;99.90;;;;;;4985755;28;20099;-84
2021/09/22 06:43:28;;;;;;;23.40;13.90;;;11.50;99.90;;;;;;4987453;28;20397;-82
2021/09/22 06:45:59;;;;;;;23.85;13.77;;;11.60;99.90;;;;;;4986058;28;20282;-82
2021/09/22 06:48:28;;;;;;;27.58;14.02;;;11.90;99.90;;;;;;4985321;28;20055;-83
2021/09/22 06:50:58;;;;;;;28.55;13.30;;;12.00;99.90;;;;;;4985502;28;20055;-82
2021/09/22 06:53:25;;;;;;;26.08;13.40;;;12.10;99.90;;;;;;4985667;28;20101;-83
2021/09/22 06:55:53;;;;;;;22.08;13.18;;;12.20;99.90;;;;;;4986039;28;20062;-82
2021/09/22 06:58:20;;;;;;;18.77;13.27;;;12.30;99.90;;;;;;4985429;28;20057;-81
2021/09/22 07:00:51;;;;;;;22.90;14.75;;;12.30;99.90;;;;;;4986497;28;20059;-80
2021/09/22 07:03:19;;;;;;;19.60;13.40;;;12.10;99.90;;;;;;4984682;28;20046;-81
2021/09/22 07:05:47;;;;;;;19.35;13.07;;;12.10;99.90;;;;;;4985510;28;20465;-83
2021/09/22 07:08:21;;;;;;;19.42;13.18;;;12.20;99.90;;;;;;4985836;28;20509;-82
2021/09/22 07:10:51;;;;;;;20.00;12.95;;;12.30;99.90;;;;;;4985738;28;20046;-82
2021/09/22 07:13:22;;;;;;;18.73;13.18;;;12.40;99.90;;;;;;4987515;28;20433;-83
2021/09/22 07:15:52;;;;;;;18.88;12.63;;;12.70;99.90;;;;;;4994336;28;20051;-80
2021/09/22 07:18:23;;;;;;;16.95;12.90;;;13.10;99.90;;;;;;4994744;28;20055;-82
2021/09/22 07:20:54;;;;;;;17.80;13.13;;;13.40;99.90;;;;;;4986868;28;20079;-82
2021/09/22 07:23:24;;;;;;;19.13;12.63;;;13.80;99.90;;;;;;4983875;28;20047;-80
2021/09/22 07:25:53;;;;;;;23.63;13.05;;;14.20;99.90;;;;;;4984156;28;20136;-82
2021/09/22 07:28:24;;;;;;;23.73;13.63;;;14.40;99.90;;;;;;4984262;28;20061;-81
2021/09/22 07:30:51;;;;;;;18.02;13.88;;;14.60;99.90;;;;;;5008167;23;20046;-74
2021/09/22 07:33:19;;;;;;;27.77;14.13;;;14.70;99.90;;;;;;4994900;28;20084;-77
2021/09/22 07:35:48;;;;;;;29.10;15.00;;;14.90;99.90;;;;;;4995314;28;20064;-77
2021/09/22 07:38:15;;;;;;;18.65;14.57;;;14.90;99.90;;;;;;4995089;28;20054;-75
2021/09/22 07:40:42;;;;;;;20.30;14.32;;;14.90;99.90;;;;;;4996381;28;20056;-76
2021/09/22 07:43:09;;;;;;;23.17;15.10;;;14.90;99.90;;;;;;4994994;28;20133;-77
2021/09/22 07:45:36;;;;;;;21.40;14.75;;;15.00;99.90;;;;;;4994794;28;20132;-77
2021/09/22 07:48:04;;;;;;;23.50;15.98;;;15.10;99.90;;;;;;4995063;28;20050;-76
2021/09/22 07:50:31;;;;;;;22.95;15.63;;;15.30;99.90;;;;;;4994915;28;20050;-76
2021/09/22 07:52:59;;;;;;;24.00;14.73;;;15.50;99.90;;;;;;4994666;28;20054;-77
2021/09/22 07:55:26;;;;;;;27.15;15.95;;;15.70;99.90;;;;;;4994276;28;20137;-76
2021/09/22 07:57:54;;;;;;;23.92;16.35;;;16.00;99.90;;;;;;4994544;28;20137;-77
2021/09/22 08:00:21;;;;;;;29.35;15.80;;;16.10;99.90;;;;;;4994572;28;20054;-77
2021/09/22 08:02:48;;;;;;;22.73;15.88;;;16.00;99.90;;;;;;4994196;28;20133;-78
2021/09/22 08:05:15;;;;;;;25.38;15.82;;;16.10;99.90;;;;;;4994095;28;20124;-77
2021/09/22 08:07:42;;;;;;;27.15;17.70;;;16.10;99.90;;;;;;4994035;28;20046;-77
2021/09/22 08:10:12;;;;;;;22.55;16.08;;;16.00;99.90;;;;;;4994543;28;20397;-77
2021/09/22 08:12:39;;;;;;;25.40;17.90;;;15.80;99.90;;;;;;4994169;28;20057;-77
2021/09/22 08:15:06;;;;;;;21.27;16.45;;;16.00;99.90;;;;;;4994369;28;20057;-76
2021/09/22 08:17:33;;;;;;;20.52;16.42;;;15.70;99.90;;;;;;4994006;28;20056;-77
2021/09/22 08:20:00;;;;;;;26.90;15.77;;;15.80;99.90;;;;;;4994145;28;20060;-80
2021/09/22 08:22:27;;;;;;;23.23;17.38;;;15.90;99.90;;;;;;4993361;28;20504;-77
2021/09/22 08:24:54;;;;;;;22.70;15.55;;;16.10;99.90;;;;;;4993766;28;20133;-77
2021/09/22 08:27:22;;;;;;;25.52;17.90;;;16.40;99.90;;;;;;4993769;28;20050;-78
2021/09/22 08:29:49;;;;;;;22.83;17.10;;;16.60;99.90;;;;;;4993465;28;20571;-77
2021/09/22 08:32:16;;;;;;;24.52;17.10;;;16.60;99.90;;;;;;4993970;28;20050;-77
2021/09/22 08:34:43;;;;;;;26.95;17.85;;;16.70;99.90;;;;;;4993544;28;20133;-77
2021/09/22 08:37:09;;;;;;;23.08;17.20;;;16.80;99.90;;;;;;4993624;28;20084;-76
2021/09/22 08:39:37;;;;;;;27.08;18.40;;;16.90;99.90;;;;;;4993448;28;20497;-77
2021/09/22 08:42:05;;;;;;;27.40;18.10;;;16.60;99.90;;;;;;4993254;28;20050;-77
2021/09/22 08:44:34;;;;;;;28.73;18.15;;;16.70;99.90;;;;;;4993735;28;20056;-77
2021/09/22 08:47:01;;;;;;;24.70;17.98;;;16.50;99.90;;;;;;4993634;28;20527;-76
2021/09/22 08:49:28;;;;;;;27.05;19.08;;;16.40;99.90;;;;;;4993607;28;20420;-76
2021/09/22 08:51:55;;;;;;;24.60;17.90;;;16.50;99.90;;;;;;4993320;28;20057;-77
2021/09/22 08:54:22;;;;;;;26.65;17.83;;;16.70;99.90;;;;;;4993480;28;20078;-76
2021/09/22 08:56:49;;;;;;;25.63;17.70;;;17.00;99.90;;;;;;4993150;28;20133;-76
2021/09/22 08:59:17;;;;;;;28.92;17.50;;;17.20;99.90;;;;;;4993745;28;20050;-76
2021/09/22 09:02:05;;;;;;;28.58;17.13;;;17.30;99.90;;;;;;4993706;28;20057;-77
2021/09/22 09:04:32;;;;;;;31.65;18.95;;;17.20;99.90;;;;;;4993268;28;20072;-77
2021/09/22 09:06:59;;;;;;;28.15;18.10;;;17.30;99.90;;;;;;4992736;28;20050;-76
2021/09/22 09:09:33;;;;;;;27.92;18.60;;;17.40;99.90;;;;;;4993221;28;20058;-78
2021/09/22 09:12:00;;;;;;;24.65;18.65;;;17.40;99.90;;;;;;4993033;28;20046;-77
2021/09/22 09:14:28;;;;;;;27.58;18.92;;;17.50;99.90;;;;;;4993481;28;20546;-77
2021/09/22 09:16:59;;;;;;;28.63;19.23;;;17.30;99.90;;;;;;4993372;28;20163;-76
2021/09/22 09:19:26;;;;;;;29.65;19.77;;;17.30;99.90;;;;;;4993109;28;20136;-77
2021/09/22 09:21:57;;;;;;;27.35;19.30;;;17.20;99.90;;;;;;4993625;28;20062;-77
2021/09/22 09:24:36;;;;;;;26.05;18.85;;;17.00;99.90;;;;;;4993185;28;20132;-76
2021/09/22 09:27:04;;;;;;;26.90;18.48;;;16.90;99.90;;;;;;4993001;28;20050;-77
2021/09/22 09:29:31;;;;;;;26.77;19.00;;;17.10;99.90;;;;;;4993211;28;20070;-76
2021/09/22 09:32:18;;;;;;;26.95;18.95;;;17.10;99.90;;;;;;4993750;28;20164;-76
2021/09/22 09:35:03;;;;;;;22.85;18.23;;;17.00;99.90;;;;;;4993623;28;20043;-77
2021/09/22 09:37:36;;;;;;;31.38;19.35;;;17.20;99.90;;;;;;4993871;28;20050;-77
2021/09/22 09:40:15;;;;;;;;;;;17.20;99.90;;;;;;4994913;28;20086;-76
2021/09/22 09:42:43;;;;;;;30.25;20.65;;;17.10;99.90;;;;;;4993600;28;20024;-77
2021/09/22 09:45:11;;;;;;;28.85;19.75;;;17.10;99.90;;;;;;4993129;28;20042;-77
2021/09/22 09:47:40;;;;;;;25.92;19.25;;;17.30;99.90;;;;;;4993390;28;20058;-76
2021/09/22 09:50:18;;;;;;;31.90;20.45;;;17.40;99.90;;;;;;4993105;28;20172;-76
2021/09/22 09:52:53;;;;;;;24.52;19.83;;;17.60;99.90;;;;;;4993171;28;20062;-76
2021/09/22 09:55:23;;;;;;;30.63;19.55;;;17.70;99.90;;;;;;4993027;28;20205;-75
2021/09/22 09:57:53;;;;;;;27.48;20.77;;;17.80;99.90;;;;;;4992462;28;20456;-77
2021/09/22 10:00:23;;;;;;;30.33;19.95;;;17.90;99.90;;;;;;4992506;28;20042;-77
2021/09/22 10:02:52;;;;;;;28.80;20.88;;;18.00;99.90;;;;;;4993045;28;20133;-77
2021/09/22 10:05:20;;;;;;;27.70;20.10;;;18.10;99.90;;;;;;4993283;28;20053;-76
2021/09/22 10:07:49;;;;;;;24.90;19.65;;;18.20;99.90;;;;;;4993405;28;20054;-77
2021/09/22 10:10:16;;;;;;;28.00;19.50;;;18.30;99.90;;;;;;4992807;28;20052;-77
2021/09/22 10:12:44;;;;;;;30.08;19.38;;;18.50;99.90;;;;;;4992934;28;20145;-75
2021/09/22 10:15:12;;;;;;;25.75;18.70;;;18.60;99.90;;;;;;4994149;28;20042;-76
2021/09/22 10:17:43;;;;;;;26.65;19.13;;;18.70;99.90;;;;;;4993778;28;20129;-76
2021/09/22 10:20:13;;;;;;;27.42;18.55;;;18.80;99.90;;;;;;4994366;28;20406;-77
2021/09/22 10:22:40;;;;;;;27.17;17.95;;;18.80;99.90;;;;;;4994649;28;20053;-77
2021/09/22 10:25:08;;;;;;;27.60;17.42;;;18.80;99.90;;;;;;4998212;28;20490;-76
2021/09/22 10:27:35;;;;;;;23.20;16.38;;;18.90;99.90;;;;;;4997905;28;20086;-76
2021/09/22 10:30:05;;;;;;;24.70;17.40;;;19.00;99.90;;;;;;4997300;28;20461;-77
2021/09/22 10:32:39;;;;;;;21.48;16.80;;;19.10;99.90;;;;;;4996880;28;20479;-76
2021/09/22 10:35:41;;;;;;;23.85;16.27;;;19.00;99.90;;;;;;4996021;28;20053;-77
2021/09/22 10:38:46;;;;;;;23.63;16.83;;;19.00;99.90;;;;;;4954738;29;20528;-76
2021/09/22 10:41:25;;;;;;;24.27;17.05;;;19.20;99.90;;;;;;4897970;29;20052;-76
2021/09/22 10:43:52;;;;;;;23.45;16.15;;;19.40;99.90;;;;;;4982204;28;20133;-76
2021/09/22 10:46:20;;;;;;;22.10;14.90;;;19.40;99.90;;;;;;4996105;28;20085;-76
2021/09/22 10:49:07;;;;;;;22.98;17.45;;;19.50;99.90;;;;;;4995820;28;20141;-77
2021/09/22 10:51:39;;;;;;;22.73;16.55;;;19.80;99.90;;;;;;4995823;28;20077;-76
2021/09/22 10:54:12;;;;;;;27.23;16.75;;;19.70;99.90;;;;;;4996103;28;20419;-77
2021/09/22 10:56:57;;;;;;;22.33;17.42;;;19.60;99.90;;;;;;4995605;28;20050;-77
2021/09/22 10:59:32;;;;;;;23.40;17.42;;;19.40;99.90;;;;;;4995846;28;20449;-76
2021/09/22 11:02:00;;;;;;;21.30;17.35;;;19.50;99.90;;;;;;4996059;28;20054;-77
2021/09/22 11:04:27;;;;;;;25.45;17.02;;;19.40;99.90;;;;;;4995118;28;20097;-76
2021/09/22 11:07:00;;;;;;;22.73;15.38;;;19.50;99.90;;;;;;4995136;28;20051;-76
2021/09/22 11:09:33;;;;;;;;;;;19.60;99.90;;;;;;4996140;28;20258;-77
2021/09/22 11:12:11;;;;;;;21.88;16.77;;;19.80;99.90;;;;;;4995510;28;19921;-76
2021/09/22 11:14:40;;;;;;;21.05;15.95;;;19.90;99.90;;;;;;4996039;28;20066;-76
2021/09/22 11:17:10;;;;;;;22.27;16.48;;;19.90;99.90;;;;;;4995283;28;20054;-77
2021/09/22 11:19:38;;;;;;;21.25;15.88;;;20.00;99.90;;;;;;4995781;28;20054;-77
2021/09/22 11:22:09;;;;;;;25.98;17.10;;;20.10;99.90;;;;;;4995808;28;20100;-76
2021/09/22 11:24:36;;;;;;;23.73;18.60;;;20.10;99.90;;;;;;4996210;28;20046;-79
2021/09/22 11:27:05;;;;;;;25.88;19.13;;;20.10;99.90;;;;;;4995312;28;20475;-76
2021/09/22 11:29:34;;;;;;;24.42;17.45;;;19.90;99.90;;;;;;4994779;28;20423;-77
2021/09/22 11:32:03;;;;;;;24.25;18.08;;;19.80;99.90;;;;;;4995301;28;20046;-77
2021/09/22 11:34:31;;;;;;;21.95;18.02;;;19.70;99.90;;;;;;4994678;28;20042;-77
2021/09/22 11:37:11;;;;;;;21.60;17.95;;;19.60;99.90;;;;;;4994619;28;20680;-76
2021/09/22 11:39:40;;;;;;;21.30;16.38;;;19.50;99.90;;;;;;4994650;28;20435;-76
2021/09/22 11:42:08;;;;;;;23.80;18.90;;;19.50;99.90;;;;;;4995119;28;20494;-77
2021/09/22 11:44:36;;;;;;;22.38;18.23;;;19.50;99.90;;;;;;4995442;28;20082;-76
2021/09/22 11:47:05;;;;;;;22.33;17.13;;;19.40;99.90;;;;;;4996026;28;20105;-77
2021/09/22 11:49:34;;;;;;;24.02;17.60;;;19.60;99.90;;;;;;4995044;28;20053;-76
2021/09/22 11:52:07;;;;;;;27.42;17.25;;;19.80;99.90;;;;;;4995939;28;20519;-75
2021/09/22 11:54:35;;;;;;;23.55;16.90;;;19.90;99.90;;;;;;4994413;28;20046;-75
2021/09/22 11:57:05;;;;;;;26.52;18.33;;;20.10;99.90;;;;;;4994906;28;20141;-75
2021/09/22 11:59:33;;;;;;;25.98;19.27;;;20.20;99.90;;;;;;4994821;28;20046;-76
2021/09/22 12:02:00;;;;;;;24.40;18.98;;;20.30;99.90;;;;;;4994978;28;20053;-76
2021/09/22 12:04:32;;;;;;;29.10;19.90;;;20.40;99.90;;;;;;4994142;28;20527;-76
2021/09/22 12:06:59;;;;;;;25.80;20.20;;;20.50;99.90;;;;;;4993671;28;20414;-76
2021/09/22 12:09:26;;;;;;;24.65;19.00;;;20.50;99.90;;;;;;4994713;28;20046;-76
2021/09/22 12:12:10;;;;;;;30.15;20.00;;;20.60;99.90;;;;;;4995104;28;20060;-77
2021/09/22 12:14:37;;;;;;;26.73;20.35;;;20.60;99.90;;;;;;4994516;28;20504;-77
2021/09/22 12:17:08;;;;;;;25.70;18.35;;;20.50;99.90;;;;;;4994232;28;20090;-77
2021/09/22 12:19:40;;;;;;;23.98;18.10;;;20.40;99.90;;;;;;4994325;28;20113;-77
2021/09/22 12:22:07;;;;;;;24.88;18.38;;;20.30;99.90;;;;;;4994542;28;20065;-77
2021/09/22 12:24:35;;;;;;;27.48;20.65;;;20.40;99.90;;;;;;4994306;28;20089;-78
2021/09/22 12:27:02;;;;;;;28.52;19.15;;;20.30;99.90;;;;;;4994272;28;20543;-77
2021/09/22 12:29:31;;;;;;;26.52;17.83;;;20.30;99.90;;;;;;4994034;28;20050;-76
2021/09/22 12:32:06;;;;;;;27.60;17.23;;;20.40;99.90;;;;;;4994646;28;20137;-76
2021/09/22 12:34:43;;;;;;;27.95;18.73;;;20.60;99.90;;;;;;4995542;28;20129;-78
2021/09/22 12:37:16;;;;;;;25.15;18.00;;;20.50;99.90;;;;;;4993802;28;20141;-76